Time;durP1;ratioP1;P1;durP2;ratioP2;P2;SDS_P1;SDS_P2;PMS_P1;PMS_P2;Temp;Humidity;BMP_temperature;BMP_pressure;BME280_temperature;BME280_humidity;BME280_pressure;Samples;Min_cycle;Max_cycle;Signal;HPM_P1;HPM_P2
2023/07/06 00:01:40;;;;;;;7.90;4.30;;;;;;;25.44;64.74;99154.47;4955070;29;20688;-78
2023/07/06 00:04:07;;;;;;;5.40;4.90;;;;;;;25.42;63.99;99156.66;4955788;29;20267;-78
2023/07/06 00:06:33;;;;;;;4.67;4.37;;;;;;;25.21;64.84;99160.81;4969457;28;20202;-77
2023/07/06 00:09:00;;;;;;;5.30;5.00;;;;;;;24.95;66.18;99158.56;4964672;28;20224;-77
2023/07/06 00:11:33;;;;;;;5.27;4.40;;;;;;;24.82;67.03;99164.75;4955433;29;20199;-76
2023/07/06 00:14:01;;;;;;;5.00;4.70;;;;;;;24.84;66.73;99162.53;4955612;29;20219;-77
2023/07/06 00:16:28;;;;;;;4.90;4.60;;;;;;;24.68;67.36;99166.63;4955871;29;20207;-76
2023/07/06 00:18:58;;;;;;;4.57;4.17;;;;;;;24.79;67.64;99164.53;4955178;29;20254;-77
2023/07/06 00:21:25;;;;;;;4.90;4.37;;;;;;;24.88;66.88;99163.53;4955075;29;20243;-75
2023/07/06 00:23:52;;;;;;;4.67;4.40;;;;;;;24.86;66.47;99167.66;4955396;29;20200;-76
2023/07/06 00:26:20;;;;;;;4.77;4.47;;;;;;;24.78;66.32;99169.16;4955224;29;20762;-76
2023/07/06 00:28:48;;;;;;;4.67;4.27;;;;;;;24.62;67.19;99165.06;4954531;29;20210;-75
2023/07/06 00:31:21;;;;;;;4.57;4.27;;;;;;;24.49;67.07;99165.78;4955490;29;20207;-75
2023/07/06 00:33:49;;;;;;;4.50;4.20;;;;;;;24.27;68.09;99159.31;4955352;29;20304;-75
2023/07/06 00:36:16;;;;;;;4.70;4.40;;;;;;;24.14;68.14;99147.25;4955041;29;20200;-75
2023/07/06 00:38:43;;;;;;;6.00;4.30;;;;;;;24.31;69.75;99163.88;4954453;29;20690;-74
2023/07/06 00:41:12;;;;;;;4.47;4.13;;;;;;;24.49;69.05;99168.50;4949888;29;20198;-74
2023/07/06 00:43:58;;;;;;;4.67;4.20;;;;;;;24.48;67.75;99166.88;4955023;29;20199;-74
2023/07/06 00:46:33;;;;;;;4.97;4.43;;;;;;;24.27;69.01;99157.41;4955427;29;20605;-76
2023/07/06 00:49:03;;;;;;;4.67;4.27;;;;;;;24.09;69.82;99166.34;4954279;29;20197;-75
2023/07/06 00:51:33;;;;;;;4.77;4.40;;;;;;;24.16;69.56;99161.38;4954753;29;20199;-75
2023/07/06 00:54:06;;;;;;;5.00;4.50;;;;;;;24.24;70.56;99162.59;4954812;29;20265;-77
2023/07/06 00:56:38;;;;;;;5.57;5.07;;;;;;;24.44;68.40;99170.47;4954997;29;20195;-76
2023/07/06 00:59:07;;;;;;;5.53;4.83;;;;;;;24.45;68.35;99169.38;4953883;29;20187;-75
2023/07/06 01:01:40;;;;;;;6.57;4.90;;;;;;;24.27;68.16;99168.28;4954872;29;20257;-75
2023/07/06 01:04:11;;;;;;;5.07;4.60;;;;;;;24.01;69.40;99164.25;4954169;28;20282;-74
2023/07/06 01:06:42;;;;;;;5.17;4.87;;;;;;;23.94;69.83;99157.59;4968929;28;20193;-74
2023/07/06 01:09:10;;;;;;;7.10;5.00;;;;;;;24.16;69.77;99155.94;4965362;28;20292;-74
2023/07/06 01:11:37;;;;;;;5.83;5.43;;;;;;;24.05;69.32;99159.88;4954802;29;20200;-74
2023/07/06 01:14:04;;;;;;;4.37;4.10;;;;;;;23.96;69.53;99148.06;4954117;29;20280;-74
2023/07/06 01:16:37;;;;;;;4.90;4.40;;;;;;;23.91;69.79;99140.00;4954669;29;20335;-74
2023/07/06 01:19:20;;;;;;;5.47;4.97;;;;;;;24.17;69.45;99145.88;4953449;29;20666;-74
2023/07/06 01:21:55;;;;;;;5.27;4.60;;;;;;;24.19;69.36;99139.06;4954304;29;20735;-74
2023/07/06 01:24:39;;;;;;;5.57;4.83;;;;;;;24.34;69.05;99149.69;4954341;29;20626;-74
2023/07/06 01:27:26;;;;;;;18.13;5.27;;;;;;;24.57;68.23;99148.81;4953547;29;20214;-74
2023/07/06 01:30:19;;;;;;;5.40;5.03;;;;;;;24.82;67.66;99153.88;4954047;29;20719;-74
2023/07/06 01:32:56;;;;;;;6.40;4.63;;;;;;;24.76;67.46;99149.66;4954166;29;20274;-74
2023/07/06 01:35:28;;;;;;;5.27;4.80;;;;;;;24.66;67.24;99149.78;4953943;29;20215;-73
2023/07/06 01:37:57;;;;;;;5.07;4.57;;;;;;;24.70;67.65;99150.81;4953854;29;20256;-74
2023/07/06 01:40:24;;;;;;;5.77;5.20;;;;;;;24.68;68.18;99150.31;4954366;29;20203;-74
2023/07/06 01:42:51;;;;;;;5.63;5.13;;;;;;;24.69;67.48;99154.63;4954539;29;20250;-74
2023/07/06 01:45:22;;;;;;;5.63;5.13;;;;;;;24.86;68.63;99148.66;4954043;29;20266;-74
2023/07/06 01:47:55;;;;;;;4.90;4.50;;;;;;;25.12;67.47;99149.84;4954005;29;20200;-74
2023/07/06 01:50:34;;;;;;;5.00;4.70;;;;;;;25.38;66.61;99156.47;4954366;29;20219;-74
2023/07/06 01:53:12;;;;;;;5.60;5.20;;;;;;;25.65;64.84;99155.69;4954389;29;20191;-74
2023/07/06 01:55:43;;;;;;;5.97;5.43;;;;;;;25.66;64.37;99146.41;4953618;29;20208;-74
2023/07/06 01:58:17;;;;;;;5.20;4.80;;;;;;;25.53;65.40;99139.06;4954182;29;20242;-74
2023/07/06 02:00:47;;;;;;;5.63;5.13;;;;;;;25.45;65.22;99139.75;4954061;29;20282;-74
2023/07/06 02:03:16;;;;;;;6.63;5.47;;;;;;;25.00;67.19;99134.00;4954108;29;20188;-74
2023/07/06 02:05:44;;;;;;;5.77;5.47;;;;;;;25.08;67.78;99139.84;4956141;28;20204;-74
2023/07/06 02:08:12;;;;;;;6.20;5.87;;;;;;;25.10;67.48;99143.88;4954049;29;20207;-74
2023/07/06 02:10:39;;;;;;;6.13;5.63;;;;;;;25.05;68.25;99143.97;4953968;29;20188;-74
2023/07/06 02:13:06;;;;;;;5.97;5.47;;;;;;;25.06;68.61;99147.53;4954001;29;20259;-73
2023/07/06 02:15:33;;;;;;;6.17;5.60;;;;;;;25.07;67.52;99146.41;4953701;28;20220;-74
2023/07/06 02:18:02;;;;;;;6.63;6.10;;;;;;;25.12;67.80;99151.75;4957858;29;20204;-74
2023/07/06 02:20:30;;;;;;;6.33;5.73;;;;;;;25.07;68.27;99154.56;4957204;29;20287;-76
2023/07/06 02:22:57;;;;;;;6.43;5.97;;;;;;;25.08;68.28;99146.13;4957504;29;20262;-75
2023/07/06 02:25:23;;;;;;;5.80;5.43;;;;;;;25.19;67.61;99152.19;4956835;29;20262;-74
2023/07/06 02:27:50;;;;;;;6.00;5.67;;;;;;;25.26;67.38;99152.56;4957724;29;20196;-75
2023/07/06 02:30:17;;;;;;;6.37;5.97;;;;;;;25.39;67.21;99157.28;4957556;29;20196;-73
2023/07/06 02:32:46;;;;;;;5.77;5.47;;;;;;;25.54;66.67;99148.81;4957630;29;20191;-75
2023/07/06 02:35:13;;;;;;;6.03;5.67;;;;;;;25.51;66.40;99154.88;4956431;29;20277;-75
2023/07/06 02:37:41;;;;;;;7.00;6.30;;;;;;;25.31;66.42;99147.88;4957504;29;20270;-74
2023/07/06 02:40:10;;;;;;;6.87;5.77;;;;;;;25.31;67.97;99144.38;4957058;29;20219;-74
2023/07/06 02:42:37;;;;;;;10.00;6.20;;;;;;;25.38;66.36;99152.94;4957454;29;20283;-74
2023/07/06 02:45:05;;;;;;;6.07;5.67;;;;;;;25.40;67.20;99148.00;4956644;29;20200;-74
2023/07/06 02:47:32;;;;;;;6.50;5.97;;;;;;;25.43;66.44;99153.66;4957329;29;20286;-74
2023/07/06 02:49:58;;;;;;;5.97;5.50;;;;;;;25.54;66.95;99155.06;4957209;29;20255;-74
2023/07/06 02:52:25;;;;;;;5.70;5.27;;;;;;;25.63;66.43;99152.47;4956922;29;20200;-74
2023/07/06 02:54:54;;;;;;;6.50;6.10;;;;;;;25.61;65.91;99152.78;4956053;29;20726;-76
2023/07/06 02:57:21;;;;;;;6.70;5.77;;;;;;;25.69;66.34;99146.63;4957147;29;20206;-76
2023/07/06 02:59:48;;;;;;;6.10;5.60;;;;;;;25.74;65.40;99153.88;4956738;29;20200;-75
2023/07/06 03:02:15;;;;;;;6.03;5.53;;;;;;;25.86;64.75;99146.00;4956765;29;20200;-76
2023/07/06 03:04:42;;;;;;;6.30;5.70;;;;;;;25.81;65.09;99149.66;4956154;29;20204;-76
2023/07/06 03:07:09;;;;;;;6.83;6.23;;;;;;;25.82;64.87;99134.09;4975253;28;20282;-76
2023/07/06 03:09:36;;;;;;;8.90;5.80;;;;;;;25.51;65.85;99133.91;4976109;28;20601;-76
2023/07/06 03:12:05;;;;;;;7.37;5.80;;;;;;;25.50;66.99;99134.19;4976262;28;20199;-75
2023/07/06 03:14:33;;;;;;;6.40;5.80;;;;;;;25.51;65.80;99138.56;4971086;28;20251;-76
2023/07/06 03:16:59;;;;;;;6.20;5.80;;;;;;;25.55;65.63;99140.34;4956466;29;20212;-76
2023/07/06 03:19:26;;;;;;;5.70;5.27;;;;;;;25.65;65.49;99139.34;4956732;29;20271;-77
2023/07/06 03:21:58;;;;;;;6.57;6.00;;;;;;;25.55;66.03;99112.38;4956358;29;20232;-74
2023/07/06 03:24:26;;;;;;;6.97;6.30;;;;;;;25.63;65.47;99133.44;4956004;29;20188;-75
2023/07/06 03:26:54;;;;;;;8.17;6.20;;;;;;;25.64;65.99;99133.09;4955981;28;20192;-75
2023/07/06 03:29:22;;;;;;;7.57;6.33;;;;;;;25.71;65.09;99129.97;4955890;29;20310;-75
2023/07/06 03:31:49;;;;;;;10.53;6.73;;;;;;;25.55;65.14;99134.13;4956068;29;20200;-75
2023/07/06 03:34:15;;;;;;;13.33;6.80;;;;;;;25.38;66.04;99134.72;4955753;29;20196;-74
2023/07/06 03:36:42;;;;;;;10.97;5.83;;;;;;;25.38;65.83;99134.72;4956218;29;20251;-75
2023/07/06 03:39:12;;;;;;;9.07;6.83;;;;;;;25.39;65.95;99135.53;4955962;29;20196;-75
2023/07/06 03:41:39;;;;;;;6.47;5.97;;;;;;;25.24;66.56;99122.16;4955927;29;20226;-75
2023/07/06 03:44:05;;;;;;;15.73;7.13;;;;;;;25.38;66.27;99132.00;4955370;29;20259;-75
2023/07/06 03:46:34;;;;;;;11.23;6.07;;;;;;;25.52;66.24;99132.78;4955366;29;20554;-74
2023/07/06 03:49:01;;;;;;;8.37;6.47;;;;;;;25.64;65.86;99137.75;4956017;29;20208;-75
2023/07/06 03:51:28;;;;;;;10.67;6.00;;;;;;;25.71;65.85;99135.41;4955807;29;20199;-76
2023/07/06 03:53:55;;;;;;;12.53;6.57;;;;;;;25.71;65.78;99130.78;4955762;29;20207;-76
2023/07/06 03:56:27;;;;;;;8.33;6.10;;;;;;;25.66;66.63;99124.63;4955653;29;20223;-76
2023/07/06 03:58:54;;;;;;;15.50;7.13;;;;;;;25.83;65.73;99122.91;4956169;29;20188;-76
2023/07/06 04:01:21;;;;;;;6.50;5.60;;;;;;;25.96;65.69;99121.34;4955876;29;20196;-76
2023/07/06 04:03:49;;;;;;;9.40;5.97;;;;;;;26.03;65.79;99129.88;4955421;29;20231;-76
2023/07/06 04:06:16;;;;;;;8.47;6.03;;;;;;;26.13;64.75;99133.19;4966505;28;20242;-77
2023/07/06 04:08:42;;;;;;;8.00;6.30;;;;;;;26.49;63.56;99127.72;4968211;28;20223;-77
2023/07/06 04:11:09;;;;;;;8.27;6.27;;;;;;;26.86;62.66;99132.88;4955890;29;20251;-76
2023/07/06 04:13:36;;;;;;;12.43;6.23;;;;;;;27.57;60.41;99140.81;4955317;29;20196;-76
2023/07/06 04:16:02;;;;;;;10.97;5.97;;;;;;;28.39;57.81;99144.41;4955926;29;20224;-76
2023/07/06 04:18:29;;;;;;;12.17;5.50;;;;;;;29.10;55.06;99143.78;4955381;29;20674;-76
2023/07/06 04:20:58;;;;;;;15.20;6.33;;;;;;;29.85;53.00;99149.34;4955362;29;20578;-76
2023/07/06 04:23:25;;;;;;;12.67;5.40;;;;;;;30.54;50.31;99145.03;4954980;29;20256;-75
2023/07/06 04:25:52;;;;;;;11.70;5.47;;;;;;;31.16;48.85;99151.28;4955382;29;20199;-75
2023/07/06 04:28:19;;;;;;;15.70;6.13;;;;;;;31.80;46.49;99157.81;4955469;29;20207;-75
2023/07/06 04:30:50;;;;;;;10.37;5.30;;;;;;;32.36;44.63;99162.38;4955318;29;20208;-75
2023/07/06 04:33:19;;;;;;;10.40;5.27;;;;;;;32.81;43.49;99162.97;4954836;29;20188;-75
2023/07/06 04:35:51;;;;;;;7.73;5.43;;;;;;;33.14;42.63;99160.75;4954820;29;20224;-76
2023/07/06 04:38:19;;;;;;;9.00;5.90;;;;;;;33.71;41.13;99167.78;4954908;28;20191;-73
2023/07/06 04:40:45;;;;;;;18.47;6.00;;;;;;;33.79;40.81;99173.09;4955043;29;20639;-73
2023/07/06 04:43:12;;;;;;;5.07;4.67;;;;;;;34.09;40.58;99167.94;4954838;29;20275;-73
2023/07/06 04:45:39;;;;;;;8.93;4.95;;;;;;;34.65;38.76;99175.56;4954775;29;20644;-74
2023/07/06 04:48:07;;;;;;;8.43;4.82;;;;;;;35.12;38.31;99173.41;4955009;28;20598;-72
2023/07/06 04:50:37;;;;;;;8.73;4.68;;;;;;;35.45;37.09;99170.91;4955188;29;20247;-72
2023/07/06 04:53:07;;;;;;;6.10;4.72;;;;;;;35.67;36.21;99174.81;4954472;29;20212;-73
2023/07/06 04:55:35;;;;;;;5.20;4.72;;;;;;;35.73;36.02;99171.38;4954262;29;20638;-73
2023/07/06 04:58:05;;;;;;;5.53;5.13;;;;;;;36.00;35.39;99180.53;4954535;29;20251;-74
2023/07/06 05:00:34;;;;;;;8.50;5.25;;;;;;;36.18;35.56;99176.06;4954845;29;20623;-73
2023/07/06 05:03:03;;;;;;;7.43;4.60;;;;;;;36.47;35.12;99183.66;4954282;29;20626;-72
2023/07/06 05:05:34;;;;;;;5.95;4.50;;;;;;;36.64;35.36;99177.56;4959247;28;20697;-74
2023/07/06 05:08:00;;;;;;;5.28;4.82;;;;;;;36.84;34.56;99181.78;4973783;28;20196;-73
2023/07/06 05:10:28;;;;;;;7.60;4.50;;;;;;;36.89;34.67;99179.50;4973938;28;20199;-73
2023/07/06 05:12:56;;;;;;;12.98;6.40;;;;;;;37.20;33.68;99183.84;4963321;28;20267;-75
2023/07/06 05:15:23;;;;;;;5.95;5.45;;;;;;;37.41;33.84;99180.47;4954518;29;20225;-75
2023/07/06 05:17:50;;;;;;;6.13;5.15;;;;;;;37.40;32.95;99176.13;4954500;29;20200;-76
2023/07/06 05:20:18;;;;;;;5.22;4.72;;;;;;;37.58;32.82;99191.75;4954644;29;20257;-75
2023/07/06 05:22:48;;;;;;;5.70;4.63;;;;;;;37.34;33.10;99174.88;4954066;29;20206;-76
2023/07/06 05:25:15;;;;;;;5.32;4.82;;;;;;;37.66;32.19;99179.56;4954572;29;20200;-75
2023/07/06 05:27:42;;;;;;;6.70;4.43;;;;;;;37.80;31.80;99182.47;4954438;29;20196;-74
2023/07/06 05:30:11;;;;;;;6.85;4.72;;;;;;;37.93;32.20;99182.97;4953789;29;20247;-74
2023/07/06 05:32:39;;;;;;;12.20;5.18;;;;;;;37.95;31.81;99180.59;4954149;29;20259;-74
2023/07/06 05:35:06;;;;;;;6.70;4.50;;;;;;;37.88;32.16;99195.22;4953919;29;20235;-75
2023/07/06 05:37:33;;;;;;;4.80;4.47;;;;;;;38.09;31.60;99192.63;4953996;29;20225;-74
2023/07/06 05:40:02;;;;;;;6.75;4.80;;;;;;;38.29;31.38;99196.72;4954134;29;20231;-73
2023/07/06 05:42:28;;;;;;;4.63;4.20;;;;;;;38.32;31.08;99195.16;4952687;29;20200;-74
2023/07/06 05:44:55;;;;;;;5.30;4.80;;;;;;;38.23;31.09;99180.84;4952189;29;20274;-74
2023/07/06 05:47:23;;;;;;;8.82;4.43;;;;;;;38.41;31.13;99192.88;4953703;29;20200;-74
2023/07/06 05:49:50;;;;;;;5.15;4.50;;;;;;;38.50;30.32;99196.91;4952707;28;20204;-74
2023/07/06 05:52:17;;;;;;;5.07;4.65;;;;;;;38.25;30.79;99189.59;4951314;29;20853;-72
2023/07/06 05:54:43;;;;;;;7.63;4.60;;;;;;;38.30;30.60;99190.03;4951665;29;20625;-74
2023/07/06 05:57:10;;;;;;;6.75;4.88;;;;;;;38.01;31.63;99179.88;4952104;29;20801;-75
2023/07/06 05:59:41;;;;;;;13.85;5.13;;;;;;;37.76;31.58;99180.84;4953061;29;20231;-74
2023/07/06 06:02:09;;;;;;;5.72;5.05;;;;;;;38.14;30.85;99188.72;4952228;29;20188;-73
2023/07/06 06:04:38;;;;;;;8.60;4.53;;;;;;;38.45;31.52;99183.34;4953701;29;20204;-74
2023/07/06 06:07:06;;;;;;;4.28;3.72;;;;;;;38.45;30.78;99188.91;4971306;28;20675;-74
2023/07/06 06:09:33;;;;;;;4.38;3.58;;;;;;;38.29;30.75;99191.19;4973085;28;20227;-74
2023/07/06 06:12:01;;;;;;;6.03;4.15;;;;;;;38.38;31.04;99188.09;4972936;28;20196;-74
2023/07/06 06:14:28;;;;;;;8.82;4.38;;;;;;;38.33;30.51;99192.00;4973317;28;20191;-74
2023/07/06 06:16:56;;;;;;;4.55;3.70;;;;;;;38.19;31.32;99186.38;4972749;28;20711;-74
2023/07/06 06:19:23;;;;;;;4.78;4.03;;;;;;;38.36;31.22;99185.69;4972876;28;20191;-74
2023/07/06 06:21:51;;;;;;;7.45;4.13;;;;;;;37.93;31.98;99178.22;4972876;28;20199;-73
2023/07/06 06:24:17;;;;;;;4.57;4.18;;;;;;;38.27;31.06;99176.09;4973216;28;20195;-74
2023/07/06 06:26:44;;;;;;;6.30;4.32;;;;;;;38.67;30.76;99182.34;4973080;28;20207;-73
2023/07/06 06:29:11;;;;;;;4.25;3.85;;;;;;;38.79;30.04;99186.75;4972854;28;20204;-74
2023/07/06 06:31:43;;;;;;;8.48;4.15;;;;;;;38.58;30.74;99181.88;4972652;28;20199;-74
2023/07/06 06:34:10;;;;;;;11.85;4.50;;;;;;;38.53;31.02;99179.47;4972805;28;20710;-74
2023/07/06 06:36:36;;;;;;;4.47;4.25;;;;;;;38.55;30.83;99176.31;4973190;28;20222;-74
2023/07/06 06:39:05;;;;;;;3.85;3.65;;;;;;;38.39;30.42;99179.38;4972659;28;20203;-73
2023/07/06 06:41:31;;;;;;;5.53;4.50;;;;;;;38.06;31.33;99175.97;4973018;28;20199;-73
2023/07/06 06:43:58;;;;;;;33.25;6.50;;;;;;;37.91;31.11;99174.22;4972862;28;20663;-74
2023/07/06 06:46:25;;;;;;;5.43;4.38;;;;;;;37.61;32.58;99171.63;4972915;28;20206;-73
2023/07/06 06:48:52;;;;;;;25.25;5.55;;;;;;;37.70;32.25;99166.53;4972557;28;20195;-74
2023/07/06 06:51:18;;;;;;;4.50;3.95;;;;;;;37.85;31.92;99157.16;4972633;28;20200;-74
2023/07/06 06:53:46;;;;;;;5.20;4.40;;;;;;;37.79;32.32;99161.47;4972420;28;20667;-73
2023/07/06 06:56:14;;;;;;;5.95;4.25;;;;;;;37.75;32.64;99151.53;4972656;28;20224;-74
2023/07/06 06:58:41;;;;;;;17.30;5.32;;;;;;;37.85;32.38;99159.94;4972399;28;20680;-74
2023/07/06 07:01:09;;;;;;;4.90;3.95;;;;;;;37.81;31.68;99159.09;4972836;28;20290;-74
2023/07/06 07:03:36;;;;;;;5.05;4.35;;;;;;;37.83;32.09;99159.50;4976059;28;20254;-74
2023/07/06 07:06:11;;;;;;;6.57;4.93;;;;;;;37.68;32.20;99160.56;4966837;28;20196;-74
2023/07/06 07:08:38;;;;;;;9.88;4.40;;;;;;;37.88;31.97;99164.69;4956440;29;20263;-73
2023/07/06 07:11:05;;;;;;;5.45;4.43;;;;;;;38.00;31.69;99166.38;4956980;29;20200;-74
2023/07/06 07:13:33;;;;;;;4.65;4.18;;;;;;;37.96;32.35;99165.56;4956443;29;20755;-73
2023/07/06 07:16:00;;;;;;;28.58;8.02;;;;;;;38.06;31.82;99165.66;4956448;29;20598;-73
2023/07/06 07:18:26;;;;;;;8.48;4.43;;;;;;;38.13;32.13;99159.38;4956639;29;20200;-73
2023/07/06 07:20:53;;;;;;;7.28;4.80;;;;;;;37.88;32.05;99167.47;4956889;29;20196;-73
2023/07/06 07:23:23;;;;;;;11.27;4.55;;;;;;;37.80;32.66;99163.03;4956294;29;20247;-73
2023/07/06 07:25:50;;;;;;;19.83;5.78;;;;;;;37.97;32.33;99159.63;4956633;29;20204;-78
2023/07/06 07:28:17;;;;;;;4.68;4.28;;;;;;;38.13;31.71;99165.69;4954213;29;20731;-76
2023/07/06 07:30:55;;;;;;;5.93;4.90;;;;;;;38.30;30.84;99165.03;4959385;28;20731;-72
2023/07/06 07:33:22;;;;;;;7.68;5.13;;;;;;;37.83;31.37;99162.28;4968305;28;20188;-69
2023/07/06 07:35:49;;;;;;;5.25;4.80;;;;;;;36.69;32.09;99166.16;4958705;28;20200;-71
2023/07/06 07:38:16;;;;;;;9.52;4.88;;;;;;;36.99;33.32;99156.66;4971230;28;20553;-73
2023/07/06 07:40:52;;;;;;;5.43;4.60;;;;;;;37.42;32.37;99165.44;4965860;28;20200;-72
2023/07/06 07:43:19;;;;;;;5.03;4.65;;;;;;;37.76;31.78;99175.31;4963045;28;20192;-74
2023/07/06 07:45:47;;;;;;;5.13;4.68;;;;;;;38.06;30.98;99171.22;4965382;28;20586;-75
2023/07/06 07:48:14;;;;;;;5.70;4.90;;;;;;;38.32;30.41;99161.84;4961496;28;20188;-72
2023/07/06 07:50:48;;;;;;;5.38;4.88;;;;;;;38.39;30.82;99168.25;4964604;28;20200;-71
2023/07/06 07:53:15;;;;;;;5.38;4.60;;;;;;;38.37;31.19;99159.50;4956412;28;20244;-78
2023/07/06 07:55:41;;;;;;;7.07;5.10;;;;;;;37.68;31.97;99143.16;4954809;28;20247;-75
2023/07/06 07:58:08;;;;;;;5.00;4.70;;;;;;;37.90;31.86;99158.75;4965117;28;20192;-73
2023/07/06 08:00:35;;;;;;;7.00;4.90;;;;;;;37.95;32.32;99159.22;4954553;28;20200;-74
2023/07/06 08:03:04;;;;;;;4.65;4.35;;;;;;;38.13;31.81;99167.69;4951952;29;20214;-76
2023/07/06 08:05:31;;;;;;;5.35;4.90;;;;;;;37.64;31.35;99165.28;4960268;28;20637;-75
2023/07/06 08:07:58;;;;;;;7.57;4.60;;;;;;;37.32;32.24;99160.59;4974855;28;20257;-76
2023/07/06 08:10:25;;;;;;;5.75;5.22;;;;;;;37.90;31.24;99162.34;4935267;29;20219;-74
2023/07/06 08:12:51;;;;;;;6.22;4.40;;;;;;;38.13;30.27;99167.69;4935474;29;20200;-79
2023/07/06 08:15:18;;;;;;;5.63;4.95;;;;;;;37.91;30.34;99165.91;4949944;28;20208;-79
2023/07/06 08:17:45;;;;;;;5.97;5.15;;;;;;;37.71;30.49;99159.03;4954233;29;20279;-76
2023/07/06 08:20:13;;;;;;;9.25;5.43;;;;;;;37.77;30.57;99151.94;4953463;29;20203;-77
2023/07/06 08:22:40;;;;;;;6.03;5.50;;;;;;;37.94;30.47;99156.81;4953689;28;20239;-76
2023/07/06 08:25:08;;;;;;;4.68;4.28;;;;;;;37.95;29.55;99158.41;4954358;28;20254;-76
2023/07/06 08:27:35;;;;;;;6.53;4.93;;;;;;;38.09;29.84;99159.31;4954793;29;20588;-72
2023/07/06 08:30:02;;;;;;;4.78;4.40;;;;;;;38.39;28.40;99157.16;4954508;29;20683;-74
2023/07/06 08:32:30;;;;;;;5.72;4.43;;;;;;;38.50;28.07;99152.47;4954446;29;20283;-77
2023/07/06 08:34:57;;;;;;;7.15;6.53;;;;;;;38.51;28.36;99148.53;4954331;29;20191;-79
2023/07/06 08:37:25;;;;;;;11.90;9.90;;;;;;;38.08;29.20;99146.63;4952621;29;20223;-73
2023/07/06 08:39:52;;;;;;;5.55;4.32;;;;;;;38.04;28.91;99148.59;4952613;29;20211;-79
2023/07/06 08:42:21;;;;;;;6.60;5.10;;;;;;;38.14;28.69;99150.66;4953985;29;20306;-75
2023/07/06 08:44:55;;;;;;;8.35;4.60;;;;;;;37.94;29.29;99146.53;4953148;29;20196;-74
2023/07/06 08:47:25;;;;;;;5.35;4.85;;;;;;;37.90;29.29;99154.03;4953964;29;20188;-75
2023/07/06 08:49:52;;;;;;;4.88;4.47;;;;;;;37.80;30.14;99146.41;4955151;29;20243;-76
2023/07/06 08:52:20;;;;;;;5.43;5.03;;;;;;;37.98;29.77;99139.03;4954588;29;20290;-75
2023/07/06 08:54:52;;;;;;;25.98;7.75;;;;;;;38.06;29.88;99140.69;4954068;29;20200;-74
2023/07/06 08:57:24;;;;;;;6.72;6.05;;;;;;;38.04;30.66;99134.72;4960415;28;20211;-74
2023/07/06 08:59:53;;;;;;;8.90;5.38;;;;;;;38.00;29.96;99147.75;4962173;28;20699;-76
2023/07/06 09:02:22;;;;;;;6.10;5.60;;;;;;;37.50;30.42;99148.50;4963229;28;20200;-76
2023/07/06 09:04:52;;;;;;;7.30;6.03;;;;;;;37.46;31.00;99125.50;4961423;28;20203;-78
2023/07/06 09:07:22;;;;;;;5.63;5.22;;;;;;;37.61;29.88;99143.88;4966569;28;20207;-78
2023/07/06 09:09:54;;;;;;;10.10;5.00;;;;;;;36.92;31.02;99144.69;4956657;28;20283;-77
2023/07/06 09:12:25;;;;;;;6.03;5.53;;;;;;;36.76;31.90;99149.66;4951447;28;20239;-75
2023/07/06 09:14:53;;;;;;;5.38;4.57;;;;;;;36.39;32.36;99137.66;4960250;28;20196;-78
2023/07/06 09:17:21;;;;;;;5.15;4.85;;;;;;;36.34;32.63;99149.06;4953788;29;20227;-76
2023/07/06 09:19:48;;;;;;;5.53;5.00;;;;;;;36.53;32.25;99137.84;4953300;29;20727;-74
2023/07/06 09:22:15;;;;;;;5.32;4.88;;;;;;;36.79;31.46;99129.53;4953742;29;20208;-76
2023/07/06 09:24:45;;;;;;;6.60;4.88;;;;;;;37.08;30.82;99129.44;4953443;28;20204;-74
2023/07/06 09:27:19;;;;;;;5.18;4.88;;;;;;;36.71;30.90;99127.84;4952159;29;20199;-73
2023/07/06 09:29:57;;;;;;;6.28;4.75;;;;;;;36.19;32.20;99133.41;4953418;29;20251;-73
2023/07/06 09:32:23;;;;;;;5.35;4.95;;;;;;;35.72;32.17;99128.31;4952985;29;20287;-74
2023/07/06 09:34:55;;;;;;;5.40;5.03;;;;;;;36.05;30.78;99133.97;4952722;29;20286;-74
2023/07/06 09:37:23;;;;;;;4.90;4.50;;;;;;;35.78;31.91;99137.13;4951861;29;20603;-74
2023/07/06 09:39:58;;;;;;;5.50;5.10;;;;;;;35.80;32.35;99132.81;4952325;29;20683;-74
2023/07/06 09:42:28;;;;;;;5.60;5.20;;;;;;;35.25;34.04;99124.28;4952838;29;20291;-73
2023/07/06 09:44:55;;;;;;;6.97;4.82;;;;;;;35.67;32.81;99127.81;4953163;29;20192;-74
2023/07/06 09:47:23;;;;;;;5.57;5.05;;;;;;;35.62;33.05;99130.91;4952701;29;20742;-74
2023/07/06 09:49:54;;;;;;;5.45;4.95;;;;;;;35.56;32.07;99126.88;4952648;29;20543;-74
2023/07/06 09:52:22;;;;;;;5.35;4.28;;;;;;;35.74;29.90;99133.47;4949050;29;20191;-76
2023/07/06 09:54:55;;;;;;;4.55;4.35;;;;;;;35.88;29.13;99129.00;4953093;29;20298;-77
2023/07/06 09:57:25;;;;;;;5.00;4.43;;;;;;;35.98;29.19;99128.38;4953095;29;20893;-76
2023/07/06 09:59:53;;;;;;;12.82;4.60;;;;;;;36.35;29.72;99123.78;4950715;28;20200;-73
2023/07/06 10:02:30;;;;;;;7.93;4.10;;;;;;;36.49;28.97;99120.41;4952513;29;20206;-76
2023/07/06 10:05:04;;;;;;;6.47;4.63;;;;;;;36.58;29.31;99121.72;4953385;28;20184;-76
2023/07/06 10:07:41;;;;;;;5.03;4.63;;;;;;;36.03;29.85;99124.47;4961431;28;20570;-72
2023/07/06 10:10:20;;;;;;;5.65;5.25;;;;;;;35.51;30.66;99099.50;4951214;29;20223;-72
2023/07/06 10:12:53;;;;;;;7.80;5.00;;;;;;;35.42;30.33;99115.56;4952379;29;20194;-76
2023/07/06 10:15:30;;;;;;;5.20;4.75;;;;;;;35.88;30.17;99114.38;4950992;29;20243;-77
2023/07/06 10:18:03;;;;;;;5.20;4.90;;;;;;;36.08;29.49;99110.31;4952664;29;20263;-74
2023/07/06 10:20:37;;;;;;;6.47;5.20;;;;;;;36.23;30.82;99098.31;4953602;29;20200;-75
2023/07/06 10:23:20;;;;;;;7.13;5.07;;;;;;;35.52;32.16;99096.38;4953101;29;20251;-75
2023/07/06 10:25:56;;;;;;;5.20;4.70;;;;;;;35.44;32.05;99089.13;4952725;29;20735;-77
2023/07/06 10:28:28;;;;;;;5.65;5.22;;;;;;;34.98;32.37;99084.75;4955037;28;20262;-76
2023/07/06 10:30:59;;;;;;;6.18;5.45;;;;;;;34.95;32.58;99079.94;4961642;28;20711;-74
2023/07/06 10:33:31;;;;;;;5.40;4.85;;;;;;;35.07;32.42;99076.25;4959881;28;20203;-74
2023/07/06 10:35:59;;;;;;;5.68;5.38;;;;;;;35.41;32.13;99073.31;4952223;29;20204;-75
2023/07/06 10:38:27;;;;;;;5.93;5.43;;;;;;;35.42;32.16;99076.88;4954769;28;20255;-82
2023/07/06 10:41:22;;;;;;;8.77;5.25;;;;;;;35.60;32.22;99067.69;4949977;29;20204;-76
2023/07/06 10:43:51;;;;;;;5.47;5.13;;;;;;;35.33;32.66;99057.78;4954461;29;20581;-77
2023/07/06 10:46:30;;;;;;;5.22;4.82;;;;;;;35.40;32.34;99062.63;4936967;29;20300;-74
2023/07/06 10:48:59;;;;;;;6.82;5.00;;;;;;;35.52;32.58;99046.63;4934854;29;20192;-73
2023/07/06 10:51:27;;;;;;;6.60;5.55;;;;;;;35.69;32.88;99050.84;4948764;29;20200;-75
2023/07/06 10:54:10;;;;;;;5.82;5.30;;;;;;;35.78;32.82;99035.63;4953898;28;20291;-73
2023/07/06 10:56:45;;;;;;;7.03;5.50;;;;;;;35.94;32.17;99040.97;4953112;29;20266;-78
2023/07/06 10:59:18;;;;;;;5.63;5.30;;;;;;;35.96;31.56;99042.19;4954904;29;20208;-79
2023/07/06 11:01:46;;;;;;;5.65;4.72;;;;;;;35.52;32.78;99048.63;4955470;29;20282;-78
2023/07/06 11:04:46;;;;;;;10.10;4.53;;;;;;;35.73;29.11;99048.94;4951760;29;20204;-78
2023/07/06 11:07:34;;;;;;;5.47;4.13;;;;;;;35.48;30.55;99056.06;4961122;28;20683;-76
2023/07/06 11:10:21;;;;;;;5.55;4.93;;;;;;;35.27;30.61;99052.91;4954520;28;20711;-79
2023/07/06 11:12:54;;;;;;;4.57;4.18;;;;;;;35.37;30.79;99046.78;4936518;29;20192;-81
2023/07/06 11:15:23;;;;;;;4.45;4.00;;;;;;;35.51;30.05;99060.81;4936692;29;20193;-75
2023/07/06 11:17:53;;;;;;;5.45;4.05;;;;;;;35.28;30.00;99060.84;4951709;29;20726;-79
2023/07/06 11:20:23;;;;;;;4.82;4.20;;;;;;;35.65;30.21;99052.78;4955557;29;20200;-74
2023/07/06 11:22:55;;;;;;;5.03;4.63;;;;;;;35.88;29.19;99067.38;4939087;29;20287;-73
2023/07/06 11:25:29;;;;;;;4.50;4.28;;;;;;;36.10;29.03;99063.72;4955633;29;20243;-73
2023/07/06 11:28:00;;;;;;;4.70;4.30;;;;;;;36.27;28.95;99060.41;4962389;28;20191;-72
2023/07/06 11:30:34;;;;;;;5.88;4.40;;;;;;;36.24;28.42;99055.63;4965695;28;20274;-73
2023/07/06 11:33:17;;;;;;;4.68;4.15;;;;;;;36.34;28.65;99041.16;4961486;28;20188;-75
2023/07/06 11:35:57;;;;;;;4.55;4.13;;;;;;;36.42;28.85;99059.44;4964532;28;20199;-74
2023/07/06 11:38:43;;;;;;;4.90;4.38;;;;;;;36.28;29.10;99056.47;4963612;28;20574;-75
2023/07/06 11:41:19;;;;;;;4.10;3.70;;;;;;;36.40;28.30;99050.69;4963458;28;20188;-76
2023/07/06 11:44:11;;;;;;;5.75;4.13;;;;;;;36.35;28.28;99045.50;4962951;28;20195;-75